sensor_id;sensor_type;location;lat;lon;timestamp;temperature;humidity
70708;SHT30;58277;47.316;18.908;2023-11-19T00:01:25;2.79;81.98
70708;SHT30;58277;47.316;18.908;2023-11-19T00:03:47;2.82;81.62
70708;SHT30;58277;47.316;18.908;2023-11-19T00:06:13;2.84;81.72
70708;SHT30;58277;47.316;18.908;2023-11-19T00:08:36;2.78;81.81
70708;SHT30;58277;47.316;18.908;2023-11-19T00:10:59;2.85;82.01
70708;SHT30;58277;47.316;18.908;2023-11-19T00:13:21;2.89;81.77
70708;SHT30;58277;47.316;18.908;2023-11-19T00:15:45;2.88;81.52
70708;SHT30;58277;47.316;18.908;2023-11-19T00:18:10;2.86;81.55
70708;SHT30;58277;47.316;18.908;2023-11-19T00:20:35;2.93;81.53
70708;SHT30;58277;47.316;18.908;2023-11-19T00:22:57;2.92;81.67
70708;SHT30;58277;47.316;18.908;2023-11-19T00:25:21;2.95;81.62
70708;SHT30;58277;47.316;18.908;2023-11-19T00:27:46;3.03;80.92
70708;SHT30;58277;47.316;18.908;2023-11-19T00:30:13;3.00;81.42
70708;SHT30;58277;47.316;18.908;2023-11-19T00:32:37;3.03;81.03
70708;SHT30;58277;47.316;18.908;2023-11-19T00:35:01;2.98;81.15
70708;SHT30;58277;47.316;18.908;2023-11-19T00:37:25;3.02;80.73
70708;SHT30;58277;47.316;18.908;2023-11-19T00:39:48;3.07;80.46
70708;SHT30;58277;47.316;18.908;2023-11-19T00:42:13;2.96;80.83
70708;SHT30;58277;47.316;18.908;2023-11-19T00:44:36;3.02;80.86
70708;SHT30;58277;47.316;18.908;2023-11-19T00:46:59;2.99;81.06
70708;SHT30;58277;47.316;18.908;2023-11-19T00:49:23;3.02;80.85
70708;SHT30;58277;47.316;18.908;2023-11-19T00:51:46;3.02;80.68
70708;SHT30;58277;47.316;18.908;2023-11-19T00:54:10;2.93;80.76
70708;SHT30;58277;47.316;18.908;2023-11-19T00:56:33;2.95;81.28
70708;SHT30;58277;47.316;18.908;2023-11-19T00:58:56;2.85;81.69
70708;SHT30;58277;47.316;18.908;2023-11-19T01:01:19;3.02;81.26
70708;SHT30;58277;47.316;18.908;2023-11-19T01:03:43;2.96;80.99
70708;SHT30;58277;47.316;18.908;2023-11-19T01:06:06;2.89;81.24
70708;SHT30;58277;47.316;18.908;2023-11-19T01:08:31;2.96;81.33
70708;SHT30;58277;47.316;18.908;2023-11-19T01:10:54;2.88;81.28
70708;SHT30;58277;47.316;18.908;2023-11-19T01:13:17;2.79;81.53
70708;SHT30;58277;47.316;18.908;2023-11-19T01:15:40;2.74;82.01
70708;SHT30;58277;47.316;18.908;2023-11-19T01:18:04;2.61;82.36
70708;SHT30;58277;47.316;18.908;2023-11-19T01:20:31;2.71;82.18
70708;SHT30;58277;47.316;18.908;2023-11-19T01:22:56;2.74;81.97
70708;SHT30;58277;47.316;18.908;2023-11-19T01:25:19;2.72;81.90
70708;SHT30;58277;47.316;18.908;2023-11-19T01:27:42;2.69;82.09
70708;SHT30;58277;47.316;18.908;2023-11-19T01:30:12;2.72;82.40
70708;SHT30;58277;47.316;18.908;2023-11-19T01:32:39;2.82;81.88
70708;SHT30;58277;47.316;18.908;2023-11-19T01:35:03;2.75;82.14
70708;SHT30;58277;47.316;18.908;2023-11-19T01:37:27;2.82;82.00
70708;SHT30;58277;47.316;18.908;2023-11-19T01:39:49;2.74;82.16
70708;SHT30;58277;47.316;18.908;2023-11-19T01:42:15;2.82;82.24
70708;SHT30;58277;47.316;18.908;2023-11-19T01:44:38;2.82;81.86
70708;SHT30;58277;47.316;18.908;2023-11-19T01:47:01;2.84;81.87
70708;SHT30;58277;47.316;18.908;2023-11-19T01:49:25;2.86;82.07
70708;SHT30;58277;47.316;18.908;2023-11-19T01:51:47;2.93;81.57
70708;SHT30;58277;47.316;18.908;2023-11-19T01:54:12;2.96;81.48
70708;SHT30;58277;47.316;18.908;2023-11-19T01:56:38;2.86;81.32
70708;SHT30;58277;47.316;18.908;2023-11-19T01:59:04;2.72;81.82
70708;SHT30;58277;47.316;18.908;2023-11-19T02:01:27;2.75;82.09
70708;SHT30;58277;47.316;18.908;2023-11-19T02:03:51;2.84;81.92
70708;SHT30;58277;47.316;18.908;2023-11-19T02:06:15;2.84;81.79
70708;SHT30;58277;47.316;18.908;2023-11-19T02:08:39;2.54;82.24
70708;SHT30;58277;47.316;18.908;2023-11-19T02:11:02;2.40;82.93
70708;SHT30;58277;47.316;18.908;2023-11-19T02:13:25;2.57;82.78
70708;SHT30;58277;47.316;18.908;2023-11-19T02:15:49;2.57;82.37
70708;SHT30;58277;47.316;18.908;2023-11-19T02:18:22;2.77;81.70
70708;SHT30;58277;47.316;18.908;2023-11-19T02:20:45;2.84;81.62
70708;SHT30;58277;47.316;18.908;2023-11-19T02:23:12;2.77;81.95
70708;SHT30;58277;47.316;18.908;2023-11-19T02:25:35;2.65;82.15
70708;SHT30;58277;47.316;18.908;2023-11-19T02:28:01;2.65;82.13
70708;SHT30;58277;47.316;18.908;2023-11-19T02:30:24;2.62;82.15
70708;SHT30;58277;47.316;18.908;2023-11-19T02:32:49;2.62;82.01
70708;SHT30;58277;47.316;18.908;2023-11-19T02:35:11;2.51;82.00
70708;SHT30;58277;47.316;18.908;2023-11-19T02:37:34;2.31;82.46
70708;SHT30;58277;47.316;18.908;2023-11-19T02:39:58;2.27;82.86
70708;SHT30;58277;47.316;18.908;2023-11-19T02:42:32;2.21;83.47
70708;SHT30;58277;47.316;18.908;2023-11-19T02:44:54;2.02;84.14
70708;SHT30;58277;47.316;18.908;2023-11-19T02:47:17;2.19;83.77
70708;SHT30;58277;47.316;18.908;2023-11-19T02:49:40;2.20;83.48
70708;SHT30;58277;47.316;18.908;2023-11-19T02:52:03;2.30;83.30
70708;SHT30;58277;47.316;18.908;2023-11-19T02:54:29;2.38;83.07
70708;SHT30;58277;47.316;18.908;2023-11-19T02:56:52;2.44;82.86
70708;SHT30;58277;47.316;18.908;2023-11-19T02:59:22;2.58;82.10
70708;SHT30;58277;47.316;18.908;2023-11-19T03:01:50;2.64;82.05
70708;SHT30;58277;47.316;18.908;2023-11-19T03:04:13;2.64;82.23
70708;SHT30;58277;47.316;18.908;2023-11-19T03:06:39;2.60;82.14
70708;SHT30;58277;47.316;18.908;2023-11-19T03:09:02;2.66;81.85
70708;SHT30;58277;47.316;18.908;2023-11-19T03:11:29;2.68;82.09
70708;SHT30;58277;47.316;18.908;2023-11-19T03:13:51;2.58;81.65
70708;SHT30;58277;47.316;18.908;2023-11-19T03:16:14;2.51;81.79
70708;SHT30;58277;47.316;18.908;2023-11-19T03:18:37;2.44;82.05
70708;SHT30;58277;47.316;18.908;2023-11-19T03:21:01;2.42;82.33
70708;SHT30;58277;47.316;18.908;2023-11-19T03:23:24;2.37;82.34
70708;SHT30;58277;47.316;18.908;2023-11-19T03:25:50;2.38;82.23
70708;SHT30;58277;47.316;18.908;2023-11-19T03:28:13;2.02;83.74
70708;SHT30;58277;47.316;18.908;2023-11-19T03:30:35;1.92;84.41
70708;SHT30;58277;47.316;18.908;2023-11-19T03:32:59;1.99;84.20
70708;SHT30;58277;47.316;18.908;2023-11-19T03:35:24;1.96;84.27
70708;SHT30;58277;47.316;18.908;2023-11-19T03:37:46;2.03;84.04
70708;SHT30;58277;47.316;18.908;2023-11-19T03:40:10;2.16;83.76
70708;SHT30;58277;47.316;18.908;2023-11-19T03:42:33;2.19;83.27
70708;SHT30;58277;47.316;18.908;2023-11-19T03:44:56;2.34;82.79
70708;SHT30;58277;47.316;18.908;2023-11-19T03:47:19;2.36;82.69
70708;SHT30;58277;47.316;18.908;2023-11-19T03:49:48;2.29;82.94
70708;SHT30;58277;47.316;18.908;2023-11-19T03:52:11;2.16;83.57
70708;SHT30;58277;47.316;18.908;2023-11-19T03:54:42;2.24;82.91
70708;SHT30;58277;47.316;18.908;2023-11-19T03:57:05;2.31;82.40
70708;SHT30;58277;47.316;18.908;2023-11-19T03:59:27;2.26;82.52
70708;SHT30;58277;47.316;18.908;2023-11-19T04:01:50;2.23;82.40
70708;SHT30;58277;47.316;18.908;2023-11-19T04:04:13;2.07;83.00
70708;SHT30;58277;47.316;18.908;2023-11-19T04:06:37;2.02;83.46
70708;SHT30;58277;47.316;18.908;2023-11-19T04:08:59;2.10;83.66
70708;SHT30;58277;47.316;18.908;2023-11-19T04:11:22;2.21;83.10
70708;SHT30;58277;47.316;18.908;2023-11-19T04:13:45;2.21;82.56
70708;SHT30;58277;47.316;18.908;2023-11-19T04:16:08;2.29;82.40
70708;SHT30;58277;47.316;18.908;2023-11-19T04:18:30;2.26;82.71
70708;SHT30;58277;47.316;18.908;2023-11-19T04:20:54;2.19;83.20
70708;SHT30;58277;47.316;18.908;2023-11-19T04:23:17;2.12;83.34
70708;SHT30;58277;47.316;18.908;2023-11-19T04:25:40;2.07;83.41
70708;SHT30;58277;47.316;18.908;2023-11-19T04:28:03;1.92;84.48
70708;SHT30;58277;47.316;18.908;2023-11-19T04:30:25;1.87;84.47
70708;SHT30;58277;47.316;18.908;2023-11-19T04:32:48;2.02;84.09
70708;SHT30;58277;47.316;18.908;2023-11-19T04:35:11;2.03;83.89
70708;SHT30;58277;47.316;18.908;2023-11-19T04:37:34;1.91;84.09
70708;SHT30;58277;47.316;18.908;2023-11-19T04:39:57;1.87;84.13
70708;SHT30;58277;47.316;18.908;2023-11-19T04:42:22;1.82;84.87
70708;SHT30;58277;47.316;18.908;2023-11-19T04:44:45;1.78;84.57
70708;SHT30;58277;47.316;18.908;2023-11-19T04:47:08;1.82;84.57
70708;SHT30;58277;47.316;18.908;2023-11-19T04:49:30;1.72;84.65
70708;SHT30;58277;47.316;18.908;2023-11-19T04:51:53;1.82;84.47
70708;SHT30;58277;47.316;18.908;2023-11-19T04:54:16;1.95;83.97
70708;SHT30;58277;47.316;18.908;2023-11-19T04:56:39;2.09;84.07
70708;SHT30;58277;47.316;18.908;2023-11-19T04:59:02;2.09;84.00
70708;SHT30;58277;47.316;18.908;2023-11-19T05:01:25;1.96;83.70
70708;SHT30;58277;47.316;18.908;2023-11-19T05:03:48;1.87;83.94
70708;SHT30;58277;47.316;18.908;2023-11-19T05:06:11;1.89;83.84
70708;SHT30;58277;47.316;18.908;2023-11-19T05:08:35;1.92;83.99
70708;SHT30;58277;47.316;18.908;2023-11-19T05:10:58;2.03;83.64
70708;SHT30;58277;47.316;18.908;2023-11-19T05:13:22;2.12;83.37
70708;SHT30;58277;47.316;18.908;2023-11-19T05:15:44;2.07;83.39
70708;SHT30;58277;47.316;18.908;2023-11-19T05:18:10;2.21;82.59
70708;SHT30;58277;47.316;18.908;2023-11-19T05:20:37;2.20;82.49
70708;SHT30;58277;47.316;18.908;2023-11-19T05:22:59;2.30;82.48
70708;SHT30;58277;47.316;18.908;2023-11-19T05:25:26;2.29;82.85
70708;SHT30;58277;47.316;18.908;2023-11-19T05:27:49;2.26;82.95
70708;SHT30;58277;47.316;18.908;2023-11-19T05:30:12;2.05;83.22
70708;SHT30;58277;47.316;18.908;2023-11-19T05:32:36;2.03;83.43
70708;SHT30;58277;47.316;18.908;2023-11-19T05:34:59;2.14;83.15
70708;SHT30;58277;47.316;18.908;2023-11-19T05:37:22;2.12;82.87
70708;SHT30;58277;47.316;18.908;2023-11-19T05:39:45;2.02;83.11
70708;SHT30;58277;47.316;18.908;2023-11-19T05:42:10;1.96;83.56
70708;SHT30;58277;47.316;18.908;2023-11-19T05:44:35;2.07;83.32
70708;SHT30;58277;47.316;18.908;2023-11-19T05:47:03;2.21;83.59
70708;SHT30;58277;47.316;18.908;2023-11-19T05:49:26;2.24;83.50
70708;SHT30;58277;47.316;18.908;2023-11-19T05:51:48;2.05;83.62
70708;SHT30;58277;47.316;18.908;2023-11-19T05:54:14;2.03;83.55
70708;SHT30;58277;47.316;18.908;2023-11-19T05:56:37;2.12;83.17
70708;SHT30;58277;47.316;18.908;2023-11-19T05:59:00;2.29;82.77
70708;SHT30;58277;47.316;18.908;2023-11-19T06:01:23;2.29;82.40
70708;SHT30;58277;47.316;18.908;2023-11-19T06:03:46;2.33;82.36
70708;SHT30;58277;47.316;18.908;2023-11-19T06:06:14;2.33;82.80
70708;SHT30;58277;47.316;18.908;2023-11-19T06:08:37;2.42;83.02
70708;SHT30;58277;47.316;18.908;2023-11-19T06:10:59;2.24;83.86
70708;SHT30;58277;47.316;18.908;2023-11-19T06:13:24;2.16;84.67
70708;SHT30;58277;47.316;18.908;2023-11-19T06:15:48;2.12;84.37
70708;SHT30;58277;47.316;18.908;2023-11-19T06:18:11;2.21;84.72
70708;SHT30;58277;47.316;18.908;2023-11-19T06:20:37;2.23;84.65
70708;SHT30;58277;47.316;18.908;2023-11-19T06:23:03;2.50;84.60
70708;SHT30;58277;47.316;18.908;2023-11-19T06:25:26;2.52;84.38
70708;SHT30;58277;47.316;18.908;2023-11-19T06:27:49;2.47;85.04
70708;SHT30;58277;47.316;18.908;2023-11-19T06:30:14;2.62;84.44
70708;SHT30;58277;47.316;18.908;2023-11-19T06:32:37;2.74;83.81
70708;SHT30;58277;47.316;18.908;2023-11-19T06:35:00;2.95;83.04
70708;SHT30;58277;47.316;18.908;2023-11-19T06:37:22;2.85;83.48
70708;SHT30;58277;47.316;18.908;2023-11-19T06:39:45;2.81;83.79
70708;SHT30;58277;47.316;18.908;2023-11-19T06:42:08;2.91;83.44
70708;SHT30;58277;47.316;18.908;2023-11-19T06:44:35;3.03;83.02
70708;SHT30;58277;47.316;18.908;2023-11-19T06:46:57;2.96;82.96
70708;SHT30;58277;47.316;18.908;2023-11-19T06:49:20;3.38;81.97
70708;SHT30;58277;47.316;18.908;2023-11-19T06:51:45;3.40;81.82
70708;SHT30;58277;47.316;18.908;2023-11-19T06:54:09;3.16;82.77
70708;SHT30;58277;47.316;18.908;2023-11-19T06:56:32;3.34;82.46
70708;SHT30;58277;47.316;18.908;2023-11-19T06:58:55;3.30;82.63
70708;SHT30;58277;47.316;18.908;2023-11-19T07:01:18;3.17;83.23
70708;SHT30;58277;47.316;18.908;2023-11-19T07:03:41;3.47;82.42
70708;SHT30;58277;47.316;18.908;2023-11-19T07:06:04;3.65;81.91
70708;SHT30;58277;47.316;18.908;2023-11-19T07:08:28;3.67;81.48
70708;SHT30;58277;47.316;18.908;2023-11-19T07:10:51;3.65;81.62
70708;SHT30;58277;47.316;18.908;2023-11-19T07:13:13;3.73;81.52
70708;SHT30;58277;47.316;18.908;2023-11-19T07:15:37;3.50;81.68
70708;SHT30;58277;47.316;18.908;2023-11-19T07:17:59;3.36;82.49
70708;SHT30;58277;47.316;18.908;2023-11-19T07:20:25;3.41;82.57
70708;SHT30;58277;47.316;18.908;2023-11-19T07:22:49;3.24;83.01
70708;SHT30;58277;47.316;18.908;2023-11-19T07:25:14;3.34;83.15
70708;SHT30;58277;47.316;18.908;2023-11-19T07:27:37;3.26;83.32
70708;SHT30;58277;47.316;18.908;2023-11-19T07:30:00;3.31;83.38
70708;SHT30;58277;47.316;18.908;2023-11-19T07:32:23;3.73;82.43
70708;SHT30;58277;47.316;18.908;2023-11-19T07:34:46;3.81;82.13
70708;SHT30;58277;47.316;18.908;2023-11-19T07:37:09;3.91;81.82
70708;SHT30;58277;47.316;18.908;2023-11-19T07:39:32;4.09;81.07
70708;SHT30;58277;47.316;18.908;2023-11-19T07:41:55;4.28;80.80
70708;SHT30;58277;47.316;18.908;2023-11-19T07:44:19;4.14;80.73
70708;SHT30;58277;47.316;18.908;2023-11-19T07:46:43;4.10;80.96
70708;SHT30;58277;47.316;18.908;2023-11-19T07:49:07;4.16;80.48
70708;SHT30;58277;47.316;18.908;2023-11-19T07:51:30;4.32;80.15
70708;SHT30;58277;47.316;18.908;2023-11-19T07:53:53;4.60;79.55
70708;SHT30;58277;47.316;18.908;2023-11-19T07:56:15;4.49;78.98
70708;SHT30;58277;47.316;18.908;2023-11-19T07:58:38;4.51;78.84
70708;SHT30;58277;47.316;18.908;2023-11-19T08:01:01;4.41;79.11
70708;SHT30;58277;47.316;18.908;2023-11-19T08:03:27;4.61;78.82
70708;SHT30;58277;47.316;18.908;2023-11-19T08:05:50;4.64;78.35
70708;SHT30;58277;47.316;18.908;2023-11-19T08:08:13;4.61;78.99
70708;SHT30;58277;47.316;18.908;2023-11-19T08:10:36;4.54;79.29
70708;SHT30;58277;47.316;18.908;2023-11-19T08:12:59;4.58;79.15
70708;SHT30;58277;47.316;18.908;2023-11-19T08:15:21;4.58;79.05
70708;SHT30;58277;47.316;18.908;2023-11-19T08:17:47;4.61;78.75
70708;SHT30;58277;47.316;18.908;2023-11-19T08:20:10;4.74;78.68
70708;SHT30;58277;47.316;18.908;2023-11-19T08:22:33;4.92;78.26
70708;SHT30;58277;47.316;18.908;2023-11-19T08:24:56;4.98;78.35
70708;SHT30;58277;47.316;18.908;2023-11-19T08:27:18;5.05;78.14
70708;SHT30;58277;47.316;18.908;2023-11-19T08:29:41;5.25;77.51
70708;SHT30;58277;47.316;18.908;2023-11-19T08:32:04;5.33;77.09
70708;SHT30;58277;47.316;18.908;2023-11-19T08:34:27;5.09;78.07
70708;SHT30;58277;47.316;18.908;2023-11-19T08:36:50;5.00;78.06
70708;SHT30;58277;47.316;18.908;2023-11-19T08:39:15;5.04;78.26
70708;SHT30;58277;47.316;18.908;2023-11-19T08:41:39;5.11;78.22
70708;SHT30;58277;47.316;18.908;2023-11-19T08:44:04;5.16;78.25
70708;SHT30;58277;47.316;18.908;2023-11-19T08:46:27;5.32;77.66
70708;SHT30;58277;47.316;18.908;2023-11-19T08:48:49;5.46;77.12
70708;SHT30;58277;47.316;18.908;2023-11-19T08:51:12;5.32;77.07
70708;SHT30;58277;47.316;18.908;2023-11-19T08:53:35;5.47;77.36
70708;SHT30;58277;47.316;18.908;2023-11-19T08:55:58;5.57;77.27
70708;SHT30;58277;47.316;18.908;2023-11-19T08:58:21;5.79;76.92
70708;SHT30;58277;47.316;18.908;2023-11-19T09:00:44;5.95;76.59
70708;SHT30;58277;47.316;18.908;2023-11-19T09:03:06;6.23;75.36
70708;SHT30;58277;47.316;18.908;2023-11-19T09:05:29;6.40;74.36
70708;SHT30;58277;47.316;18.908;2023-11-19T09:07:52;6.37;74.09
70708;SHT30;58277;47.316;18.908;2023-11-19T09:10:15;6.49;73.44
70708;SHT30;58277;47.316;18.908;2023-11-19T09:12:38;6.58;73.22
70708;SHT30;58277;47.316;18.908;2023-11-19T09:15:01;6.63;73.29
70708;SHT30;58277;47.316;18.908;2023-11-19T09:17:23;6.74;73.48
70708;SHT30;58277;47.316;18.908;2023-11-19T09:19:46;6.70;73.49
70708;SHT30;58277;47.316;18.908;2023-11-19T09:22:09;6.78;73.29
70708;SHT30;58277;47.316;18.908;2023-11-19T09:24:32;6.77;72.98
70708;SHT30;58277;47.316;18.908;2023-11-19T09:26:54;6.71;73.15
70708;SHT30;58277;47.316;18.908;2023-11-19T09:29:19;6.81;72.78
70708;SHT30;58277;47.316;18.908;2023-11-19T09:31:42;6.36;73.78
70708;SHT30;58277;47.316;18.908;2023-11-19T09:34:04;6.57;73.84
70708;SHT30;58277;47.316;18.908;2023-11-19T09:36:28;6.60;73.44
70708;SHT30;58277;47.316;18.908;2023-11-19T09:38:50;6.47;73.26
70708;SHT30;58277;47.316;18.908;2023-11-19T09:41:13;6.42;73.58
70708;SHT30;58277;47.316;18.908;2023-11-19T09:43:37;6.47;73.22
70708;SHT30;58277;47.316;18.908;2023-11-19T09:46:04;6.25;73.67
70708;SHT30;58277;47.316;18.908;2023-11-19T09:48:30;6.21;74.62
70708;SHT30;58277;47.316;18.908;2023-11-19T09:50:53;6.02;75.15
70708;SHT30;58277;47.316;18.908;2023-11-19T09:53:17;5.97;75.58
70708;SHT30;58277;47.316;18.908;2023-11-19T09:55:40;6.18;74.81
70708;SHT30;58277;47.316;18.908;2023-11-19T09:58:03;6.18;73.89
70708;SHT30;58277;47.316;18.908;2023-11-19T10:00:26;5.97;74.45
70708;SHT30;58277;47.316;18.908;2023-11-19T10:02:49;6.18;74.58
70708;SHT30;58277;47.316;18.908;2023-11-19T10:05:12;6.43;73.40
70708;SHT30;58277;47.316;18.908;2023-11-19T10:07:37;6.51;73.63
70708;SHT30;58277;47.316;18.908;2023-11-19T10:10:01;6.15;74.50
70708;SHT30;58277;47.316;18.908;2023-11-19T10:12:27;5.74;76.41
70708;SHT30;58277;47.316;18.908;2023-11-19T10:14:50;5.77;76.64
70708;SHT30;58277;47.316;18.908;2023-11-19T10:17:13;5.97;76.04
70708;SHT30;58277;47.316;18.908;2023-11-19T10:19:36;6.02;75.80
70708;SHT30;58277;47.316;18.908;2023-11-19T10:22:05;5.77;76.74
70708;SHT30;58277;47.316;18.908;2023-11-19T10:24:32;5.83;76.89
70708;SHT30;58277;47.316;18.908;2023-11-19T10:27:02;6.02;76.92
70708;SHT30;58277;47.316;18.908;2023-11-19T10:29:26;5.97;76.57
70708;SHT30;58277;47.316;18.908;2023-11-19T10:31:58;6.19;76.23
70708;SHT30;58277;47.316;18.908;2023-11-19T10:34:41;6.36;75.98
70708;SHT30;58277;47.316;18.908;2023-11-19T10:37:05;6.50;75.48
70708;SHT30;58277;47.316;18.908;2023-11-19T10:39:53;6.67;74.85
70708;SHT30;58277;47.316;18.908;2023-11-19T10:42:19;6.95;73.89
70708;SHT30;58277;47.316;18.908;2023-11-19T10:44:42;6.94;73.30
70708;SHT30;58277;47.316;18.908;2023-11-19T10:47:05;6.83;73.71
70708;SHT30;58277;47.316;18.908;2023-11-19T10:49:30;6.80;73.73
70708;SHT30;58277;47.316;18.908;2023-11-19T10:51:53;6.83;73.84
70708;SHT30;58277;47.316;18.908;2023-11-19T10:54:19;6.94;73.34
70708;SHT30;58277;47.316;18.908;2023-11-19T10:56:44;6.87;73.13
70708;SHT30;58277;47.316;18.908;2023-11-19T10:59:07;7.16;72.60
70708;SHT30;58277;47.316;18.908;2023-11-19T11:01:43;7.18;72.57
70708;SHT30;58277;47.316;18.908;2023-11-19T11:04:14;6.99;72.83
70708;SHT30;58277;47.316;18.908;2023-11-19T11:06:38;7.07;72.90
70708;SHT30;58277;47.316;18.908;2023-11-19T11:09:01;6.84;72.75
70708;SHT30;58277;47.316;18.908;2023-11-19T11:11:24;6.92;72.55
70708;SHT30;58277;47.316;18.908;2023-11-19T11:13:50;6.95;72.36
70708;SHT30;58277;47.316;18.908;2023-11-19T11:16:13;6.95;72.59
70708;SHT30;58277;47.316;18.908;2023-11-19T11:18:37;6.80;73.54
70708;SHT30;58277;47.316;18.908;2023-11-19T11:21:07;6.67;75.31
70708;SHT30;58277;47.316;18.908;2023-11-19T11:39:39;6.36;75.33
70708;SHT30;58277;47.316;18.908;2023-11-19T11:50:08;6.54;74.50
70708;SHT30;58277;47.316;18.908;2023-11-19T11:55:23;6.97;71.89
70708;SHT30;58277;47.316;18.908;2023-11-19T11:57:47;7.08;72.23
70708;SHT30;58277;47.316;18.908;2023-11-19T12:00:11;6.95;73.50
70708;SHT30;58277;47.316;18.908;2023-11-19T12:02:36;6.98;73.94
70708;SHT30;58277;47.316;18.908;2023-11-19T12:05:00;6.84;74.05
70708;SHT30;58277;47.316;18.908;2023-11-19T12:07:26;7.01;73.61
70708;SHT30;58277;47.316;18.908;2023-11-19T12:10:08;6.99;74.10
70708;SHT30;58277;47.316;18.908;2023-11-19T12:12:34;7.28;73.70
70708;SHT30;58277;47.316;18.908;2023-11-19T12:17:50;6.85;74.18
70708;SHT30;58277;47.316;18.908;2023-11-19T12:20:13;7.04;74.29
70708;SHT30;58277;47.316;18.908;2023-11-19T12:22:41;7.12;74.21
70708;SHT30;58277;47.316;18.908;2023-11-19T12:25:05;7.32;73.59
70708;SHT30;58277;47.316;18.908;2023-11-19T12:27:28;7.26;73.17
70708;SHT30;58277;47.316;18.908;2023-11-19T12:29:51;7.32;72.21
70708;SHT30;58277;47.316;18.908;2023-11-19T12:32:14;7.18;71.51
70708;SHT30;58277;47.316;18.908;2023-11-19T12:34:37;7.40;70.83
70708;SHT30;58277;47.316;18.908;2023-11-19T12:37:03;7.46;70.32
70708;SHT30;58277;47.316;18.908;2023-11-19T12:39:29;7.45;69.07
70708;SHT30;58277;47.316;18.908;2023-11-19T12:41:52;7.49;67.86
70708;SHT30;58277;47.316;18.908;2023-11-19T12:44:15;7.39;67.24
70708;SHT30;58277;47.316;18.908;2023-11-19T12:46:38;7.63;66.43
70708;SHT30;58277;47.316;18.908;2023-11-19T12:49:01;7.71;66.78
70708;SHT30;58277;47.316;18.908;2023-11-19T12:51:30;7.70;67.03
70708;SHT30;58277;47.316;18.908;2023-11-19T12:53:53;7.43;67.10
70708;SHT30;58277;47.316;18.908;2023-11-19T12:56:21;7.53;68.35
70708;SHT30;58277;47.316;18.908;2023-11-19T12:58:44;7.42;67.00
70708;SHT30;58277;47.316;18.908;2023-11-19T13:01:09;7.45;67.33
70708;SHT30;58277;47.316;18.908;2023-11-19T13:03:35;7.52;67.31
70708;SHT30;58277;47.316;18.908;2023-11-19T13:06:06;7.37;67.48
70708;SHT30;58277;47.316;18.908;2023-11-19T13:08:44;7.22;67.70
70708;SHT30;58277;47.316;18.908;2023-11-19T13:11:30;7.40;68.35
70708;SHT30;58277;47.316;18.908;2023-11-19T13:13:58;7.23;67.52
70708;SHT30;58277;47.316;18.908;2023-11-19T13:16:22;7.36;67.44
70708;SHT30;58277;47.316;18.908;2023-11-19T13:18:45;7.36;67.62
70708;SHT30;58277;47.316;18.908;2023-11-19T13:21:08;7.70;67.38
70708;SHT30;58277;47.316;18.908;2023-11-19T13:23:31;7.62;67.23
70708;SHT30;58277;47.316;18.908;2023-11-19T13:25:55;7.64;67.49
70708;SHT30;58277;47.316;18.908;2023-11-19T13:28:17;7.42;67.07
70708;SHT30;58277;47.316;18.908;2023-11-19T13:30:40;7.52;67.64
70708;SHT30;58277;47.316;18.908;2023-11-19T13:33:03;7.64;66.78
70708;SHT30;58277;47.316;18.908;2023-11-19T13:35:25;7.88;67.32
70708;SHT30;58277;47.316;18.908;2023-11-19T13:37:50;7.95;67.23
70708;SHT30;58277;47.316;18.908;2023-11-19T13:40:14;7.90;67.36
70708;SHT30;58277;47.316;18.908;2023-11-19T13:42:38;7.87;67.74
70708;SHT30;58277;47.316;18.908;2023-11-19T13:45:13;7.94;67.27
70708;SHT30;58277;47.316;18.908;2023-11-19T13:47:36;7.91;67.70
70708;SHT30;58277;47.316;18.908;2023-11-19T13:49:59;8.01;67.64
70708;SHT30;58277;47.316;18.908;2023-11-19T13:52:22;7.83;66.78
70708;SHT30;58277;47.316;18.908;2023-11-19T13:54:45;7.76;67.01
70708;SHT30;58277;47.316;18.908;2023-11-19T13:57:08;7.87;67.58
70708;SHT30;58277;47.316;18.908;2023-11-19T13:59:31;7.90;66.84
70708;SHT30;58277;47.316;18.908;2023-11-19T14:01:55;8.06;66.71
70708;SHT30;58277;47.316;18.908;2023-11-19T14:04:17;8.04;67.12
70708;SHT30;58277;47.316;18.908;2023-11-19T14:06:40;7.98;68.26
70708;SHT30;58277;47.316;18.908;2023-11-19T14:09:03;8.01;67.97
70708;SHT30;58277;47.316;18.908;2023-11-19T14:11:28;7.81;67.46
70708;SHT30;58277;47.316;18.908;2023-11-19T14:13:51;7.66;69.16
70708;SHT30;58277;47.316;18.908;2023-11-19T14:16:14;7.42;70.22
70708;SHT30;58277;47.316;18.908;2023-11-19T14:18:38;7.47;71.68
70708;SHT30;58277;47.316;18.908;2023-11-19T14:21:01;7.59;72.44
70708;SHT30;58277;47.316;18.908;2023-11-19T14:23:25;7.39;73.18
70708;SHT30;58277;47.316;18.908;2023-11-19T14:25:50;7.04;74.79
70708;SHT30;58277;47.316;18.908;2023-11-19T14:28:13;7.15;75.52
70708;SHT30;58277;47.316;18.908;2023-11-19T14:30:36;7.14;77.47
70708;SHT30;58277;47.316;18.908;2023-11-19T14:32:59;7.08;76.26
70708;SHT30;58277;47.316;18.908;2023-11-19T14:35:22;7.05;76.92
70708;SHT30;58277;47.316;18.908;2023-11-19T14:37:45;6.99;77.59
70708;SHT30;58277;47.316;18.908;2023-11-19T14:40:08;7.14;78.03
70708;SHT30;58277;47.316;18.908;2023-11-19T14:42:34;7.19;78.34
70708;SHT30;58277;47.316;18.908;2023-11-19T14:44:56;7.14;80.36
70708;SHT30;58277;47.316;18.908;2023-11-19T14:47:22;7.28;79.86
70708;SHT30;58277;47.316;18.908;2023-11-19T14:49:45;7.04;78.34
70708;SHT30;58277;47.316;18.908;2023-11-19T14:52:08;7.11;79.47
70708;SHT30;58277;47.316;18.908;2023-11-19T14:54:35;7.20;79.39
70708;SHT30;58277;47.316;18.908;2023-11-19T14:56:58;7.28;78.96
70708;SHT30;58277;47.316;18.908;2023-11-19T14:59:22;7.20;79.42
70708;SHT30;58277;47.316;18.908;2023-11-19T15:01:45;7.23;79.02
70708;SHT30;58277;47.316;18.908;2023-11-19T15:04:08;7.29;79.35
70708;SHT30;58277;47.316;18.908;2023-11-19T15:06:31;7.32;79.17
70708;SHT30;58277;47.316;18.908;2023-11-19T15:08:55;7.25;79.84
70708;SHT30;58277;47.316;18.908;2023-11-19T15:11:18;7.25;79.97
70708;SHT30;58277;47.316;18.908;2023-11-19T15:13:41;7.32;78.76
70708;SHT30;58277;47.316;18.908;2023-11-19T15:16:05;7.33;78.35
70708;SHT30;58277;47.316;18.908;2023-11-19T15:18:28;7.30;79.08
70708;SHT30;58277;47.316;18.908;2023-11-19T15:20:51;7.28;78.60
70708;SHT30;58277;47.316;18.908;2023-11-19T15:23:15;7.35;78.32
70708;SHT30;58277;47.316;18.908;2023-11-19T15:25:38;7.26;78.03
70708;SHT30;58277;47.316;18.908;2023-11-19T15:28:01;7.20;78.90
70708;SHT30;58277;47.316;18.908;2023-11-19T15:30:24;7.25;79.40
70708;SHT30;58277;47.316;18.908;2023-11-19T15:32:48;7.30;78.56
70708;SHT30;58277;47.316;18.908;2023-11-19T15:35:12;7.28;79.06
70708;SHT30;58277;47.316;18.908;2023-11-19T15:37:37;7.45;78.07
70708;SHT30;58277;47.316;18.908;2023-11-19T15:40:07;7.26;78.86